createdAt,value
2022-09-23T00:00:22.452Z,76.87
2022-09-23T00:03:08.314Z,76.97
2022-09-23T00:06:01.694Z,77.39
2022-09-23T00:08:47.460Z,77.47
2022-09-23T00:11:32.884Z,78.14
2022-09-23T00:14:18.716Z,78.09
2022-09-23T00:17:04.009Z,78.57
2022-09-23T00:19:49.643Z,78.84
2022-09-23T00:22:36.428Z,78.87
2022-09-23T00:25:21.865Z,78.89
2022-09-23T00:28:07.316Z,78.88
2022-09-23T00:30:52.984Z,78.80
2022-09-23T00:33:38.379Z,78.93
2022-09-23T00:36:25.316Z,78.98
2022-09-23T00:39:10.783Z,78.87
2022-09-23T00:41:56.286Z,78.85
2022-09-23T00:45:04.289Z,79.05
2022-09-23T00:48:02.318Z,79.26
2022-09-23T00:50:53.403Z,79.53
2022-09-23T00:53:40.315Z,79.18
2022-09-23T00:56:26.042Z,79.05
2022-09-23T00:59:11.286Z,79.20
2022-09-23T01:01:58.749Z,79.84
2022-09-23T01:04:44.390Z,80.19
2022-09-23T01:07:30.233Z,80.63
2022-09-23T01:10:17.186Z,80.87
2022-09-23T01:13:20.666Z,81.05
2022-09-23T01:16:14.790Z,81.04
2022-09-23T01:19:34.218Z,80.92
2022-09-23T01:22:44.365Z,80.78
2022-09-23T01:26:11.137Z,81.01
2022-09-23T01:29:34.575Z,81.20
2022-09-23T01:32:38.627Z,81.62
2022-09-23T01:35:24.960Z,81.69
2022-09-23T01:38:44.672Z,81.58
2022-09-23T01:41:40.001Z,82.11
2022-09-23T01:44:34.820Z,81.94
2022-09-23T01:47:30.674Z,81.53
2022-09-23T01:50:43.361Z,81.18
2022-09-23T01:53:40.236Z,81.32
2022-09-23T01:56:31.151Z,81.60
2022-09-23T01:59:32.809Z,81.76
2022-09-23T02:02:33.935Z,82.02
2022-09-23T02:05:30.178Z,81.32
2022-09-23T02:08:26.309Z,81.04
2022-09-23T02:11:15.303Z,81.20
2022-09-23T02:14:16.587Z,80.65
2022-09-23T02:17:10.357Z,80.54
2022-09-23T02:20:01.681Z,79.37
2022-09-23T02:22:56.378Z,78.25
2022-09-23T02:25:54.341Z,78.47
2022-09-23T02:29:07.823Z,78.82
2022-09-23T02:32:33.507Z,78.64
2022-09-23T02:35:32.817Z,79.16
2022-09-23T02:38:21.715Z,79.38
2022-09-23T02:41:22.995Z,79.17
2022-09-23T02:44:16.570Z,79.65
2022-09-23T02:47:02.247Z,79.34
2022-09-23T02:49:47.776Z,79.62
2022-09-23T02:52:33.455Z,79.98
2022-09-23T02:55:23.415Z,80.51
2022-09-23T02:58:09.319Z,81.06
2022-09-23T03:01:38.383Z,80.17
2022-09-23T03:04:31.546Z,79.88
2022-09-23T03:07:41.570Z,79.66
2022-09-23T03:10:45.758Z,80.41
2022-09-23T03:14:08.482Z,80.87
2022-09-23T03:17:33.267Z,81.24
2022-09-23T03:20:39.204Z,81.56
2022-09-23T03:23:39.341Z,80.59
2022-09-23T03:26:31.260Z,80.73
2022-09-23T03:29:19.805Z,80.74
2022-09-23T03:32:08.188Z,80.88
2022-09-23T03:34:56.501Z,81.16
2022-09-23T03:37:53.268Z,81.14
2022-09-23T03:40:43.427Z,81.29
2022-09-23T03:43:30.063Z,81.76
2022-09-23T03:46:18.359Z,81.30
2022-09-23T03:49:17.146Z,81.78
2022-09-23T03:52:03.405Z,81.05
2022-09-23T03:54:49.553Z,80.77
2022-09-23T03:57:36.701Z,80.64
2022-09-23T04:00:22.035Z,80.82
2022-09-23T04:03:11.406Z,81.19
2022-09-23T04:05:56.836Z,81.30
2022-09-23T04:08:42.279Z,81.56
2022-09-23T04:11:28.746Z,81.46
2022-09-23T04:14:15.006Z,82.15
2022-09-23T04:17:00.420Z,82.09
2022-09-23T04:19:45.907Z,82.32
2022-09-23T04:22:33.513Z,82.29
2022-09-23T04:25:19.071Z,82.31
2022-09-23T04:28:04.492Z,82.89
2022-09-23T04:30:49.857Z,82.42
2022-09-23T04:33:35.781Z,82.55
2022-09-23T04:36:21.174Z,82.67
2022-09-23T04:39:06.778Z,82.61
2022-09-23T04:41:51.732Z,82.65
2022-09-23T04:44:38.837Z,82.95
2022-09-23T04:47:24.092Z,82.57
2022-09-23T04:50:09.322Z,82.21
2022-09-23T04:52:55.105Z,82.48
2022-09-23T04:55:41.067Z,82.81
2022-09-23T04:58:26.577Z,82.29
2022-09-23T05:01:24.613Z,82.98
2022-09-23T05:04:13.760Z,82.75
2022-09-23T05:07:02.922Z,82.91
2022-09-23T05:09:48.593Z,82.93
2022-09-23T05:12:34.127Z,82.67
2022-09-23T05:15:19.437Z,82.87
2022-09-23T05:18:04.875Z,82.85
2022-09-23T05:20:56.718Z,82.68
2022-09-23T05:23:48.771Z,82.66
2022-09-23T05:26:33.832Z,82.55
2022-09-23T05:29:19.072Z,82.72
2022-09-23T05:32:04.565Z,82.25
2022-09-23T05:34:49.872Z,82.08
2022-09-23T05:37:35.255Z,82.00
2022-09-23T05:40:20.544Z,81.58
2022-09-23T05:43:06.271Z,81.47
2022-09-23T05:45:52.401Z,81.20
2022-09-23T05:48:38.584Z,80.99
2022-09-23T05:51:30.658Z,80.76
2022-09-23T05:54:16.419Z,80.22
2022-09-23T05:57:04.863Z,80.32
2022-09-23T05:59:50.594Z,79.37
2022-09-23T06:02:36.036Z,79.28
2022-09-23T06:05:21.090Z,79.14
2022-09-23T06:08:07.721Z,77.75
2022-09-23T06:10:54.532Z,76.92
2022-09-23T06:13:41.250Z,76.99
2022-09-23T06:16:27.615Z,77.02
2022-09-23T06:19:12.943Z,77.12
2022-09-23T06:21:58.010Z,76.66
2022-09-23T06:24:42.983Z,75.76
2022-09-23T06:27:28.470Z,75.22
2022-09-23T06:30:13.949Z,74.96
2022-09-23T06:33:00.042Z,74.02
2022-09-23T06:35:56.818Z,74.16
2022-09-23T06:38:44.694Z,73.09
2022-09-23T06:41:30.065Z,72.77
2022-09-23T06:44:16.613Z,71.79
2022-09-23T06:47:01.966Z,71.35
2022-09-23T06:49:47.925Z,70.63
2022-09-23T06:52:33.298Z,71.00
2022-09-23T06:55:18.553Z,70.58
2022-09-23T06:58:04.125Z,70.81
2022-09-23T07:00:49.373Z,70.53
2022-09-23T07:03:35.443Z,69.60
2022-09-23T07:06:20.825Z,68.78
2022-09-23T07:09:08.028Z,66.98
2022-09-23T07:11:53.685Z,66.67
2022-09-23T07:14:39.114Z,65.51
2022-09-23T07:17:25.120Z,64.38
2022-09-23T07:20:11.402Z,63.43
2022-09-23T07:22:56.832Z,63.62
2022-09-23T07:25:42.867Z,63.29
2022-09-23T07:28:28.970Z,64.05
2022-09-23T07:31:26.565Z,64.77
2022-09-23T07:34:17.681Z,65.24
2022-09-23T07:37:02.900Z,65.29
2022-09-23T07:39:48.220Z,65.50
2022-09-23T07:42:33.488Z,65.14
2022-09-23T07:45:18.628Z,64.29
2022-09-23T07:48:05.391Z,64.45
2022-09-23T07:50:50.682Z,63.90
2022-09-23T07:53:36.966Z,64.42
2022-09-23T07:56:26.919Z,64.63
2022-09-23T07:59:18.519Z,63.25
2022-09-23T08:02:03.630Z,62.90
2022-09-23T08:04:49.524Z,62.42
2022-09-23T08:07:35.318Z,62.57
2022-09-23T08:10:21.069Z,63.02
2022-09-23T08:13:06.570Z,62.25
2022-09-23T08:15:55.523Z,61.76
2022-09-23T08:18:45.025Z,62.25
2022-09-23T08:21:30.554Z,62.00
2022-09-23T08:24:21.759Z,60.65
2022-09-23T08:27:07.145Z,60.27
2022-09-23T08:29:52.438Z,61.11
2022-09-23T08:32:37.875Z,61.04
2022-09-23T08:35:23.673Z,60.73
2022-09-23T08:38:12.278Z,59.23
2022-09-23T08:41:23.730Z,58.94
2022-09-23T08:44:32.851Z,58.85
2022-09-23T08:47:24.788Z,58.17
2022-09-23T08:50:20.228Z,58.32
2022-09-23T08:53:12.929Z,57.99
2022-09-23T08:56:00.827Z,57.63
2022-09-23T08:59:22.775Z,59.02
2022-09-23T09:02:35.220Z,58.09
2022-09-23T09:05:27.476Z,57.22
2022-09-23T09:08:13.944Z,57.52
2022-09-23T09:11:00.005Z,56.79
2022-09-23T09:13:56.736Z,56.09
2022-09-23T09:17:04.779Z,55.61
2022-09-23T09:20:21.314Z,55.67
2022-09-23T09:23:33.843Z,55.07
2022-09-23T09:26:39.938Z,54.16
2022-09-23T09:29:35.358Z,54.17
2022-09-23T09:32:46.153Z,54.37
2022-09-23T09:35:38.434Z,55.08
2022-09-23T09:38:24.043Z,53.76
2022-09-23T09:41:16.875Z,53.17
2022-09-23T09:44:19.198Z,52.72
2022-09-23T09:47:28.405Z,52.87
2022-09-23T09:50:21.232Z,52.38
2022-09-23T09:53:25.366Z,50.40
2022-09-23T09:56:14.736Z,50.49
2022-09-23T09:59:08.258Z,49.92
2022-09-23T10:02:21.506Z,48.78
2022-09-23T10:05:07.816Z,47.58
2022-09-23T10:07:54.106Z,46.96
2022-09-23T10:10:54.697Z,47.18
2022-09-23T10:13:40.262Z,44.93
2022-09-23T10:16:25.833Z,45.40
2022-09-23T10:19:28.197Z,46.64
2022-09-23T10:22:24.245Z,47.01
2022-09-23T10:25:17.047Z,46.20
2022-09-23T10:28:30.708Z,47.56
2022-09-23T10:31:25.974Z,46.74
2022-09-23T10:34:28.963Z,46.87
2022-09-23T10:37:23.294Z,64.75
2022-09-23T10:40:53.409Z,59.05
2022-09-23T10:44:35.910Z,52.39
2022-09-23T10:47:42.764Z,51.57
2022-09-23T10:50:39.511Z,44.32
2022-09-23T10:53:49.378Z,43.93
2022-09-23T10:56:40.153Z,43.13
2022-09-23T10:59:49.556Z,44.54
2022-09-23T11:03:10.645Z,43.77
2022-09-23T11:06:22.965Z,44.25
2022-09-23T11:09:13.992Z,43.81
2022-09-23T11:12:24.107Z,42.56
2022-09-23T11:15:38.955Z,43.13
2022-09-23T11:18:30.568Z,42.88
2022-09-23T11:21:27.674Z,43.09
2022-09-23T11:24:39.598Z,42.65
2022-09-23T11:27:46.836Z,43.40
2022-09-23T11:30:57.900Z,42.34
2022-09-23T11:33:56.489Z,41.13
2022-09-23T11:36:53.044Z,40.64
2022-09-23T11:39:45.736Z,39.73
2022-09-23T11:42:58.086Z,39.42
2022-09-23T11:45:57.845Z,40.49
2022-09-23T11:48:47.321Z,40.17
2022-09-23T11:51:57.822Z,40.79
2022-09-23T11:55:15.190Z,41.64
2022-09-23T11:58:25.144Z,41.42
2022-09-23T12:01:37.353Z,40.93
2022-09-23T12:04:23.970Z,41.17
2022-09-23T12:07:19.967Z,41.07
2022-09-23T12:10:09.234Z,41.91
2022-09-23T12:13:23.747Z,41.42
2022-09-23T12:16:33.682Z,42.16
2022-09-23T12:19:47.473Z,39.79
2022-09-23T12:22:52.415Z,39.29
2022-09-23T12:25:57.106Z,39.81
2022-09-23T12:28:46.768Z,41.05
2022-09-23T12:31:41.065Z,39.54
2022-09-23T12:34:30.069Z,36.95
2022-09-23T12:37:27.740Z,37.01
2022-09-23T12:40:44.407Z,39.92
2022-09-23T12:43:33.047Z,39.32
2022-09-23T12:46:27.543Z,38.88
2022-09-23T12:49:37.077Z,38.99
2022-09-23T12:52:26.567Z,40.39
2022-09-23T12:55:22.027Z,40.64
2022-09-23T12:58:56.940Z,39.48
2022-09-23T13:01:43.454Z,39.73
2022-09-23T13:04:54.114Z,40.03
2022-09-23T13:07:47.045Z,39.69
2022-09-23T13:10:54.291Z,41.73
2022-09-23T13:13:43.356Z,42.46
2022-09-23T13:16:40.736Z,40.19
2022-09-23T13:19:25.880Z,39.97
2022-09-23T13:22:14.502Z,40.95
2022-09-23T13:25:02.930Z,40.22
2022-09-23T13:27:52.720Z,39.82
2022-09-23T13:30:49.140Z,40.16
2022-09-23T13:33:54.353Z,40.29
2022-09-23T13:36:48.903Z,40.62
2022-09-23T13:39:34.645Z,41.62
2022-09-23T13:42:29.806Z,41.62
2022-09-23T13:45:19.015Z,41.92
2022-09-23T13:48:11.991Z,39.88
2022-09-23T13:50:57.110Z,40.73
2022-09-23T13:53:42.294Z,40.58
2022-09-23T13:56:30.669Z,39.51
2022-09-23T13:59:38.178Z,39.78
2022-09-23T14:02:28.498Z,39.96
2022-09-23T14:05:26.172Z,39.84
2022-09-23T14:08:12.651Z,40.52
2022-09-23T14:10:59.475Z,41.44
2022-09-23T14:13:46.592Z,42.69
2022-09-23T14:16:32.046Z,42.73
2022-09-23T14:19:19.671Z,41.49
2022-09-23T14:22:09.234Z,40.82
2022-09-23T14:24:58.411Z,40.47
2022-09-23T14:27:46.687Z,40.14
2022-09-23T14:30:32.203Z,40.97
2022-09-23T14:33:34.079Z,40.33
2022-09-23T14:36:37.678Z,39.45
2022-09-23T14:39:22.898Z,39.74
2022-09-23T14:42:09.716Z,40.36
2022-09-23T14:44:57.531Z,40.75
2022-09-23T14:47:49.596Z,40.43
2022-09-23T14:50:47.433Z,40.84
2022-09-23T14:53:34.538Z,40.94
2022-09-23T14:56:21.988Z,41.86
2022-09-23T14:59:40.889Z,40.99
2022-09-23T15:02:31.110Z,42.29
2022-09-23T15:05:22.418Z,42.67
2022-09-23T15:08:12.895Z,41.14
2022-09-23T15:10:58.843Z,41.22
2022-09-23T15:13:49.337Z,41.02
2022-09-23T15:16:34.920Z,41.84
2022-09-23T15:19:21.536Z,42.42
2022-09-23T15:22:09.662Z,41.67
2022-09-23T15:25:11.095Z,42.47
2022-09-23T15:28:08.423Z,42.60
2022-09-23T15:30:53.732Z,43.16
2022-09-23T15:33:39.180Z,43.80
2022-09-23T15:36:27.373Z,44.28
2022-09-23T15:39:13.342Z,44.05
2022-09-23T15:42:01.394Z,44.23
2022-09-23T15:44:46.827Z,43.84
2022-09-23T15:47:32.220Z,43.36
2022-09-23T15:50:18.020Z,43.50
2022-09-23T15:53:04.166Z,43.38
2022-09-23T15:55:53.222Z,43.56
2022-09-23T15:58:38.187Z,44.13
2022-09-23T16:01:30.051Z,44.62
2022-09-23T16:04:16.639Z,44.93
2022-09-23T16:07:04.112Z,44.94
2022-09-23T16:09:49.459Z,44.78
2022-09-23T16:12:34.684Z,44.33
2022-09-23T16:15:22.027Z,44.73
2022-09-23T16:18:09.525Z,44.47
2022-09-23T16:20:54.824Z,44.81
2022-09-23T16:23:47.329Z,45.04
2022-09-23T16:26:39.475Z,45.16
2022-09-23T16:29:25.350Z,45.21
2022-09-23T16:32:10.678Z,45.41
2022-09-23T16:34:58.366Z,45.50
2022-09-23T16:37:46.955Z,45.78
2022-09-23T16:40:32.639Z,45.82
2022-09-23T16:43:19.576Z,46.09
2022-09-23T16:46:12.633Z,46.17
2022-09-23T16:48:58.755Z,46.32
2022-09-23T16:51:43.994Z,46.78
2022-09-23T16:54:29.843Z,47.07
2022-09-23T16:57:15.198Z,47.46
2022-09-23T17:00:19.069Z,47.41
